Time;durP1;ratioP1;P1;durP2;ratioP2;P2;SDS_P1;SDS_P2;PMS_P1;PMS_P2;Temp;Humidity;BMP_temperature;BMP_pressure;BME280_temperature;BME280_humidity;BME280_pressure;Samples;Min_cycle;Max_cycle;Signal;HPM_P1;HPM_P2
2021/06/27 00:00:41;;;;;;;54.90;31.42;;;;;;;;;;6189708;23;20025;-85
2021/06/27 00:03:08;;;;;;;56.55;34.95;;;;;;;;;;6190325;23;20398;-85
2021/06/27 00:05:35;;;;;;;54.75;34.00;;;;;;;;;;6191846;23;20032;-86
2021/06/27 00:08:11;;;;;;;53.95;33.58;;;;;;;;;;6190635;23;20029;-86
2021/06/27 00:10:40;;;;;;;58.53;33.53;;;;;;;;;;6163116;23;20430;-86
2021/06/27 00:13:07;;;;;;;50.13;32.58;;;;;;;;;;6162362;23;20108;-85
2021/06/27 00:15:52;;;;;;;56.95;35.30;;;;;;;;;;6189133;23;20310;-86
2021/06/27 00:18:20;;;;;;;60.35;34.95;;;;;;;;;;6162451;23;20032;-85
2021/06/27 00:20:48;;;;;;;55.45;34.75;;;;;;;;;;6164171;23;20200;-86
2021/06/27 00:23:31;;;;;;;62.53;35.95;;;;;;;;;;6163009;23;20025;-85
2021/06/27 00:25:58;;;;;;;59.35;35.03;;;;;;;;;;6189240;23;20036;-85
2021/06/27 00:28:25;;;;;;;55.85;34.63;;;;;;;;;;6164758;23;20025;-85
2021/06/27 00:31:03;;;;;;;58.58;35.00;;;;;;;;;;6164097;23;20040;-84
2021/06/27 00:33:30;;;;;;;54.22;34.72;;;;;;;;;;6165164;23;20089;-85
2021/06/27 00:36:00;;;;;;;63.92;38.28;;;;;;;;;;6164730;23;20060;-85
2021/06/27 00:38:26;;;;;;;62.60;35.25;;;;;;;;;;6190376;23;20315;-86
2021/06/27 00:40:56;;;;;;;64.78;35.75;;;;;;;;;;6190521;23;20073;-85
2021/06/27 00:43:24;;;;;;;60.88;37.17;;;;;;;;;;6164245;23;20221;-85
2021/06/27 00:45:50;;;;;;;65.95;36.78;;;;;;;;;;6181382;23;20025;-85
2021/06/27 00:48:18;;;;;;;59.45;37.05;;;;;;;;;;6197172;23;20029;-84
2021/06/27 00:50:46;;;;;;;65.18;38.38;;;;;;;;;;6199163;23;20024;-84
2021/06/27 00:53:13;;;;;;;68.38;39.90;;;;;;;;;;6222782;23;20028;-85
2021/06/27 00:55:40;;;;;;;63.15;38.67;;;;;;;;;;6222042;23;20128;-85
2021/06/27 00:58:07;;;;;;;66.40;39.05;;;;;;;;;;6196706;23;20056;-85
2021/06/27 01:00:39;;;;;;;67.15;39.72;;;;;;;;;;6222057;23;20025;-85
2021/06/27 01:03:07;;;;;;;66.82;38.47;;;;;;;;;;6195519;23;20084;-85
2021/06/27 01:05:37;;;;;;;69.88;39.30;;;;;;;;;;6222092;23;20024;-85
2021/06/27 01:08:08;;;;;;;66.78;36.65;;;;;;;;;;6221470;23;20032;-85
2021/06/27 01:10:35;;;;;;;72.10;38.92;;;;;;;;;;6194707;23;20033;-87
2021/06/27 01:13:05;;;;;;;67.68;38.20;;;;;;;;;;6221912;23;20103;-86
2021/06/27 01:15:42;;;;;;;66.55;37.60;;;;;;;;;;6222578;23;20027;-86
2021/06/27 01:18:12;;;;;;;63.50;37.15;;;;;;;;;;6221301;23;20265;-86
2021/06/27 01:20:39;;;;;;;67.65;38.20;;;;;;;;;;6220359;23;20406;-85
2021/06/27 01:23:14;;;;;;;67.38;38.38;;;;;;;;;;6196144;23;20020;-86
2021/06/27 01:25:46;;;;;;;69.93;37.80;;;;;;;;;;6195209;23;20076;-86
2021/06/27 01:28:13;;;;;;;69.65;38.70;;;;;;;;;;6221682;23;20128;-85
2021/06/27 01:30:43;;;;;;;64.35;38.58;;;;;;;;;;6222959;23;20032;-85
2021/06/27 01:33:12;;;;;;;70.43;39.00;;;;;;;;;;6222590;23;20052;-85
2021/06/27 01:35:39;;;;;;;67.78;38.92;;;;;;;;;;6220731;23;20095;-85
2021/06/27 01:38:10;;;;;;;69.93;39.15;;;;;;;;;;6222450;23;20025;-84
2021/06/27 01:40:37;;;;;;;68.20;38.47;;;;;;;;;;6221106;23;20036;-84
2021/06/27 01:43:05;;;;;;;73.18;38.30;;;;;;;;;;6222103;23;20024;-84
2021/06/27 01:45:37;;;;;;;70.70;40.55;;;;;;;;;;6220364;23;20024;-86
2021/06/27 01:48:08;;;;;;;71.28;39.22;;;;;;;;;;6222158;23;20029;-86
2021/06/27 01:50:35;;;;;;;65.35;37.40;;;;;;;;;;6220865;23;20028;-86
2021/06/27 01:53:03;;;;;;;65.45;37.72;;;;;;;;;;6220089;23;20035;-86
2021/06/27 01:55:30;;;;;;;72.57;39.70;;;;;;;;;;6194478;23;20170;-85
2021/06/27 01:57:57;;;;;;;63.47;37.97;;;;;;;;;;6197816;23;20255;-86
2021/06/27 02:00:25;;;;;;;69.40;39.33;;;;;;;;;;6223711;23;20035;-86
2021/06/27 02:02:51;;;;;;;67.90;38.85;;;;;;;;;;6222974;23;20417;-86
2021/06/27 02:05:23;;;;;;;67.88;38.45;;;;;;;;;;6221965;23;20040;-86
2021/06/27 02:07:50;;;;;;;71.75;40.40;;;;;;;;;;6221267;23;20052;-86
2021/06/27 02:10:20;;;;;;;73.32;38.45;;;;;;;;;;6195697;23;20349;-86
2021/06/27 02:12:54;;;;;;;72.10;40.70;;;;;;;;;;6195982;23;20024;-86
2021/06/27 02:15:21;;;;;;;83.97;43.88;;;;;;;;;;6221565;23;20099;-84
2021/06/27 02:17:53;;;;;;;78.65;41.80;;;;;;;;;;6198042;23;20031;-84
2021/06/27 02:20:22;;;;;;;85.70;44.70;;;;;;;;;;6200611;23;20048;-85
2021/06/27 02:23:01;;;;;;;74.72;43.03;;;;;;;;;;6228473;23;20076;-86
2021/06/27 02:25:28;;;;;;;77.43;41.13;;;;;;;;;;6225216;23;20413;-86
2021/06/27 02:27:54;;;;;;;80.80;43.83;;;;;;;;;;6224762;23;20052;-86
2021/06/27 02:30:30;;;;;;;78.93;41.22;;;;;;;;;;6225173;23;20321;-86
2021/06/27 02:32:57;;;;;;;79.75;41.90;;;;;;;;;;6225708;23;20025;-86
2021/06/27 02:35:24;;;;;;;84.32;40.30;;;;;;;;;;6199803;23;20108;-85
2021/06/27 02:38:01;;;;;;;76.93;40.78;;;;;;;;;;6223985;23;20076;-85
2021/06/27 02:40:27;;;;;;;74.57;40.25;;;;;;;;;;6223540;23;20031;-86
2021/06/27 02:42:54;;;;;;;77.10;42.65;;;;;;;;;;6225458;23;20322;-85
2021/06/27 02:45:25;;;;;;;79.68;40.67;;;;;;;;;;6195962;23;20027;-84
2021/06/27 02:47:52;;;;;;;77.72;40.92;;;;;;;;;;6200649;23;20088;-86
2021/06/27 02:50:22;;;;;;;81.10;41.88;;;;;;;;;;6206726;23;20024;-86
2021/06/27 02:52:51;;;;;;;85.05;42.63;;;;;;;;;;6206259;23;20037;-85
2021/06/27 02:55:18;;;;;;;78.65;41.45;;;;;;;;;;6191622;23;20028;-86
2021/06/27 02:57:45;;;;;;;85.00;43.88;;;;;;;;;;6190669;23;20380;-85
2021/06/27 03:00:16;;;;;;;85.55;42.35;;;;;;;;;;6189027;23;20069;-86
2021/06/27 03:02:43;;;;;;;89.75;43.38;;;;;;;;;;6191323;23;20025;-85
2021/06/27 03:05:11;;;;;;;97.10;47.05;;;;;;;;;;6190799;23;20025;-85
2021/06/27 03:07:37;;;;;;;94.90;43.35;;;;;;;;;;6192765;23;20058;-85
2021/06/27 03:10:05;;;;;;;93.53;44.88;;;;;;;;;;6191555;23;20037;-86
2021/06/27 03:12:39;;;;;;;86.72;42.58;;;;;;;;;;6217121;23;20080;-86
2021/06/27 03:15:06;;;;;;;91.50;45.42;;;;;;;;;;6192823;23;20036;-85
2021/06/27 03:17:33;;;;;;;89.05;45.08;;;;;;;;;;6194494;23;20076;-86
2021/06/27 03:20:18;;;;;;;86.75;42.97;;;;;;;;;;6194139;23;20132;-85
2021/06/27 03:22:46;;;;;;;88.40;46.05;;;;;;;;;;6191444;23;20025;-85
2021/06/27 03:25:14;;;;;;;89.82;43.60;;;;;;;;;;6192712;23;20032;-86
2021/06/27 03:27:40;;;;;;;81.70;42.00;;;;;;;;;;6192882;23;20143;-86
2021/06/27 03:30:10;;;;;;;88.88;45.05;;;;;;;;;;6191093;23;20084;-85
2021/06/27 03:32:36;;;;;;;98.65;48.83;;;;;;;;;;6192533;23;20405;-86
2021/06/27 03:35:04;;;;;;;106.93;50.72;;;;;;;;;;6193918;23;20395;-85
2021/06/27 03:37:31;;;;;;;95.13;47.22;;;;;;;;;;6191460;23;20049;-85
2021/06/27 03:39:58;;;;;;;90.18;46.72;;;;;;;;;;6196247;23;20086;-84
2021/06/27 03:42:25;;;;;;;95.90;47.15;;;;;;;;;;6220812;23;20025;-84
2021/06/27 03:44:52;;;;;;;99.22;48.85;;;;;;;;;;6195875;23;20032;-86
2021/06/27 03:47:20;;;;;;;97.63;47.28;;;;;;;;;;6198138;23;20081;-84
2021/06/27 03:49:47;;;;;;;97.78;48.17;;;;;;;;;;6223973;23;20048;-84
2021/06/27 03:52:13;;;;;;;97.00;46.97;;;;;;;;;;6198322;23;20064;-85
2021/06/27 03:54:46;;;;;;;96.00;47.20;;;;;;;;;;6198217;23;20028;-84
2021/06/27 03:57:15;;;;;;;95.72;48.88;;;;;;;;;;6226084;23;20035;-86
2021/06/27 03:59:42;;;;;;;92.65;47.15;;;;;;;;;;6199481;23;20024;-85
2021/06/27 04:02:09;;;;;;;89.50;45.53;;;;;;;;;;6222267;23;20405;-85
2021/06/27 04:04:36;;;;;;;96.07;49.25;;;;;;;;;;6196420;23;20051;-85
2021/06/27 04:07:05;;;;;;;92.40;48.67;;;;;;;;;;6195922;23;20055;-85
2021/06/27 04:09:31;;;;;;;89.18;45.92;;;;;;;;;;6220081;23;20039;-86
2021/06/27 04:12:06;;;;;;;90.32;45.90;;;;;;;;;;6221843;23;20076;-85
2021/06/27 04:14:35;;;;;;;63.67;38.03;;;;;;;;;;6195934;23;20049;-85
2021/06/27 04:17:02;;;;;;;61.08;36.67;;;;;;;;;;6220196;23;20056;-85
2021/06/27 04:19:29;;;;;;;55.92;34.72;;;;;;;;;;6196149;23;20035;-85
2021/06/27 04:21:55;;;;;;;50.80;31.75;;;;;;;;;;6222899;23;20024;-85
2021/06/27 04:24:22;;;;;;;47.70;31.08;;;;;;;;;;6224179;23;20099;-85
2021/06/27 04:26:49;;;;;;;49.35;30.45;;;;;;;;;;6225051;23;20060;-85
2021/06/27 04:29:16;;;;;;;42.13;29.10;;;;;;;;;;6223098;23;20028;-85
2021/06/27 04:31:43;;;;;;;40.65;28.33;;;;;;;;;;6224706;23;20283;-85
2021/06/27 04:34:13;;;;;;;42.30;29.48;;;;;;;;;;6197040;23;20432;-85
2021/06/27 04:36:40;;;;;;;41.78;28.80;;;;;;;;;;6196631;23;20034;-85
2021/06/27 04:39:15;;;;;;;39.05;28.40;;;;;;;;;;6223394;23;20317;-85
2021/06/27 04:41:45;;;;;;;35.38;26.70;;;;;;;;;;6222742;23;20099;-85
2021/06/27 04:44:14;;;;;;;38.70;26.92;;;;;;;;;;6222767;23;20078;-86
2021/06/27 04:46:42;;;;;;;41.97;27.65;;;;;;;;;;6223206;23;20403;-86
2021/06/27 04:49:11;;;;;;;37.78;26.80;;;;;;;;;;6172992;23;20107;-86
2021/06/27 04:51:38;;;;;;;38.45;26.33;;;;;;;;;;6222783;23;20028;-85
2021/06/27 04:54:07;;;;;;;35.55;25.40;;;;;;;;;;6196133;23;20076;-85
2021/06/27 04:56:35;;;;;;;35.38;25.77;;;;;;;;;;6223535;23;20412;-85
2021/06/27 04:59:04;;;;;;;33.80;24.10;;;;;;;;;;6221874;23;20052;-85
2021/06/27 05:01:30;;;;;;;34.97;24.33;;;;;;;;;;6220733;23;20020;-85
2021/06/27 05:03:57;;;;;;;35.67;24.67;;;;;;;;;;6220983;23;20024;-85
2021/06/27 05:06:25;;;;;;;38.67;26.40;;;;;;;;;;6221868;23;20024;-83
2021/06/27 05:08:52;;;;;;;31.67;23.30;;;;;;;;;;6218980;23;20025;-84
2021/06/27 05:11:18;;;;;;;33.80;24.30;;;;;;;;;;6195718;23;20465;-84
2021/06/27 05:13:46;;;;;;;31.05;22.67;;;;;;;;;;6196269;23;20103;-83
2021/06/27 05:16:26;;;;;;;31.10;23.20;;;;;;;;;;6195065;23;20025;-84
2021/06/27 05:18:53;;;;;;;30.90;23.75;;;;;;;;;;6220634;23;20077;-84
2021/06/27 05:21:19;;;;;;;30.05;22.80;;;;;;;;;;6221943;23;20644;-84
2021/06/27 05:23:46;;;;;;;30.60;22.08;;;;;;;;;;6199362;23;20315;-84
2021/06/27 05:26:13;;;;;;;29.88;21.98;;;;;;;;;;6224659;23;20024;-84
2021/06/27 05:28:39;;;;;;;31.58;21.30;;;;;;;;;;6198003;23;20493;-84
2021/06/27 05:31:06;;;;;;;28.20;20.67;;;;;;;;;;6223541;23;20107;-85
2021/06/27 05:33:33;;;;;;;28.00;21.77;;;;;;;;;;6224761;23;20025;-84
2021/06/27 05:35:59;;;;;;;30.33;20.45;;;;;;;;;;6223966;23;20024;-84
2021/06/27 05:38:26;;;;;;;27.02;19.10;;;;;;;;;;6224252;23;20052;-85
2021/06/27 05:40:53;;;;;;;25.13;19.48;;;;;;;;;;6223418;23;20028;-85
2021/06/27 05:43:19;;;;;;;22.80;18.15;;;;;;;;;;6225474;23;20025;-85
2021/06/27 05:45:46;;;;;;;24.83;18.73;;;;;;;;;;6217358;23;20025;-85
2021/06/27 05:48:13;;;;;;;24.40;18.80;;;;;;;;;;6192482;23;20025;-85
2021/06/27 05:50:40;;;;;;;28.13;20.50;;;;;;;;;;6192570;23;20045;-85
2021/06/27 05:53:07;;;;;;;26.00;18.98;;;;;;;;;;6191828;23;20024;-84
2021/06/27 05:55:33;;;;;;;23.02;18.38;;;;;;;;;;6192554;23;20098;-84
2021/06/27 05:58:09;;;;;;;28.27;19.98;;;;;;;;;;6191393;23;20029;-85
2021/06/27 06:00:36;;;;;;;;;;;;;;;;;;6195399;23;20025;-85
2021/06/27 06:03:03;;;;;;;26.02;18.75;;;;;;;;;;6194933;23;19947;-85
2021/06/27 06:05:33;;;;;;;26.40;19.92;;;;;;;;;;6191781;23;20498;-85
2021/06/27 06:07:59;;;;;;;29.02;19.77;;;;;;;;;;6192706;23;20119;-85
2021/06/27 06:10:26;;;;;;;24.00;19.05;;;;;;;;;;6200778;23;20080;-84
2021/06/27 06:12:55;;;;;;;27.63;19.52;;;;;;;;;;6232461;22;20040;-85
2021/06/27 06:15:24;;;;;;;24.00;19.02;;;;;;;;;;6200986;23;20360;-85
2021/06/27 06:17:50;;;;;;;24.10;17.98;;;;;;;;;;6200836;23;20055;-85
2021/06/27 06:20:17;;;;;;;23.90;18.40;;;;;;;;;;6205162;23;20136;-85
2021/06/27 06:22:44;;;;;;;23.30;17.50;;;;;;;;;;6194477;23;20426;-84
2021/06/27 06:25:11;;;;;;;22.40;17.55;;;;;;;;;;6190911;23;20330;-84
2021/06/27 06:27:37;;;;;;;23.02;17.98;;;;;;;;;;6189983;23;20039;-84
2021/06/27 06:30:04;;;;;;;21.75;16.85;;;;;;;;;;6187561;23;20107;-84
2021/06/27 06:32:31;;;;;;;22.88;16.98;;;;;;;;;;6189609;23;20192;-85
2021/06/27 06:34:58;;;;;;;23.73;17.02;;;;;;;;;;6190289;23;20083;-83
2021/06/27 06:37:24;;;;;;;24.42;17.08;;;;;;;;;;6188538;23;20033;-83
2021/06/27 06:40:01;;;;;;;23.52;15.52;;;;;;;;;;6187319;23;20025;-84
2021/06/27 06:42:27;;;;;;;22.58;18.15;;;;;;;;;;6186683;23;20035;-84
2021/06/27 06:44:54;;;;;;;20.23;17.15;;;;;;;;;;6190284;23;20025;-84
2021/06/27 06:47:21;;;;;;;21.48;17.70;;;;;;;;;;6218409;23;20023;-84
2021/06/27 06:49:47;;;;;;;22.85;16.75;;;;;;;;;;6217522;23;20052;-85
2021/06/27 06:52:15;;;;;;;21.13;16.48;;;;;;;;;;6220058;23;20031;-85
2021/06/27 06:54:45;;;;;;;22.42;17.33;;;;;;;;;;6226686;23;20081;-85
2021/06/27 06:57:12;;;;;;;19.00;16.40;;;;;;;;;;6219640;23;20032;-85
2021/06/27 06:59:41;;;;;;;23.70;16.38;;;;;;;;;;6216891;23;20032;-85
2021/06/27 07:02:08;;;;;;;21.35;15.35;;;;;;;;;;6218423;23;20174;-85
2021/06/27 07:04:44;;;;;;;19.25;15.48;;;;;;;;;;6217629;23;20020;-84
2021/06/27 07:07:10;;;;;;;18.55;14.85;;;;;;;;;;6218396;23;20052;-85
2021/06/27 07:09:37;;;;;;;18.25;14.43;;;;;;;;;;6217451;23;20029;-85
2021/06/27 07:12:04;;;;;;;17.73;14.13;;;;;;;;;;6192569;23;20028;-85
2021/06/27 07:14:40;;;;;;;19.05;15.02;;;;;;;;;;6190982;23;20028;-85
2021/06/27 07:17:06;;;;;;;21.23;15.75;;;;;;;;;;6219536;23;20084;-82
2021/06/27 07:19:33;;;;;;;18.35;14.63;;;;;;;;;;6188761;23;20048;-82
2021/06/27 07:22:00;;;;;;;19.10;15.23;;;;;;;;;;6214317;23;20086;-81
2021/06/27 07:24:31;;;;;;;14.77;12.40;;;;;;;;;;6189699;23;20032;-82
2021/06/27 07:26:57;;;;;;;15.70;13.25;;;;;;;;;;6212605;23;20055;-82
2021/06/27 07:29:24;;;;;;;13.90;11.70;;;;;;;;;;6213562;23;20117;-83
2021/06/27 07:31:54;;;;;;;16.73;13.65;;;;;;;;;;6187998;23;20025;-83
2021/06/27 07:34:21;;;;;;;15.52;12.65;;;;;;;;;;6214357;23;20158;-82
2021/06/27 07:36:48;;;;;;;14.30;10.98;;;;;;;;;;6217663;23;20283;-82
2021/06/27 07:39:15;;;;;;;12.30;10.77;;;;;;;;;;6192343;23;20059;-81
2021/06/27 07:41:47;;;;;;;12.27;10.10;;;;;;;;;;6213212;23;20051;-82
2021/06/27 07:44:16;;;;;;;10.98;9.45;;;;;;;;;;6211945;23;20352;-82
2021/06/27 07:46:43;;;;;;;9.68;8.68;;;;;;;;;;6208035;23;20051;-83
2021/06/27 07:49:10;;;;;;;11.50;9.63;;;;;;;;;;6185991;23;20219;-83
2021/06/27 07:51:37;;;;;;;11.82;10.05;;;;;;;;;;6186381;23;20035;-82
2021/06/27 07:54:04;;;;;;;11.93;9.27;;;;;;;;;;6189013;23;20025;-81
2021/06/27 07:56:30;;;;;;;14.57;11.77;;;;;;;;;;6186815;23;20040;-82
2021/06/27 07:58:59;;;;;;;9.27;8.27;;;;;;;;;;6185258;23;20040;-82
2021/06/27 08:01:26;;;;;;;14.05;9.93;;;;;;;;;;6209250;23;20057;-82
2021/06/27 08:03:53;;;;;;;11.48;9.93;;;;;;;;;;6211270;23;20303;-82
2021/06/27 08:06:20;;;;;;;11.93;9.45;;;;;;;;;;6207895;23;20029;-82
2021/06/27 08:08:46;;;;;;;11.18;9.32;;;;;;;;;;6187422;23;20039;-83
2021/06/27 08:11:13;;;;;;;11.55;10.07;;;;;;;;;;6210087;23;20033;-82
2021/06/27 08:13:40;;;;;;;10.15;8.65;;;;;;;;;;6211161;23;20087;-82
2021/06/27 08:16:07;;;;;;;11.48;9.32;;;;;;;;;;6187369;23;20205;-82
2021/06/27 08:18:33;;;;;;;10.80;9.10;;;;;;;;;;6211082;23;20021;-82
2021/06/27 08:21:00;;;;;;;12.50;8.90;;;;;;;;;;6185902;23;20079;-82
2021/06/27 08:23:39;;;;;;;10.95;7.93;;;;;;;;;;6186388;23;20107;-82
2021/06/27 08:26:06;;;;;;;9.52;8.52;;;;;;;;;;6186615;23;20435;-83
2021/06/27 08:28:33;;;;;;;11.02;9.18;;;;;;;;;;6184493;23;20419;-82
2021/06/27 08:31:00;;;;;;;12.27;9.63;;;;;;;;;;6211805;23;20025;-83
2021/06/27 08:33:27;;;;;;;11.75;8.50;;;;;;;;;;6209633;23;20470;-83
2021/06/27 08:35:53;;;;;;;11.40;9.02;;;;;;;;;;6210159;23;20047;-82
2021/06/27 08:38:24;;;;;;;11.18;9.68;;;;;;;;;;6209023;23;20084;-82
2021/06/27 08:40:53;;;;;;;8.65;7.75;;;;;;;;;;6207188;23;20040;-83
2021/06/27 08:43:20;;;;;;;8.93;7.28;;;;;;;;;;6183796;23;20280;-82
2021/06/27 08:45:51;;;;;;;11.80;9.70;;;;;;;;;;6183655;23;20363;-82
2021/06/27 08:48:19;;;;;;;11.23;9.70;;;;;;;;;;6157709;23;20092;-82
2021/06/27 08:50:47;;;;;;;13.20;9.15;;;;;;;;;;6182698;23;20104;-82
2021/06/27 08:53:14;;;;;;;10.30;7.93;;;;;;;;;;6182021;23;20362;-83
2021/06/27 08:55:44;;;;;;;12.85;8.48;;;;;;;;;;6182353;23;20100;-83
2021/06/27 08:58:10;;;;;;;12.40;10.25;;;;;;;;;;6156083;23;20040;-82
2021/06/27 09:00:37;;;;;;;10.65;8.63;;;;;;;;;;6182998;23;20128;-84
2021/06/27 09:03:06;;;;;;;9.75;8.13;;;;;;;;;;6155829;23;20095;-83
2021/06/27 09:05:34;;;;;;;10.68;8.27;;;;;;;;;;6184054;23;20029;-82
2021/06/27 09:08:18;;;;;;;11.27;6.90;;;;;;;;;;6183359;23;20021;-82
2021/06/27 09:10:45;;;;;;;8.85;7.65;;;;;;;;;;6157603;23;20029;-83
2021/06/27 09:13:11;;;;;;;8.23;6.97;;;;;;;;;;6182761;23;20124;-83
2021/06/27 09:15:50;;;;;;;8.93;6.75;;;;;;;;;;6157564;23;20469;-82
2021/06/27 09:18:17;;;;;;;8.68;7.45;;;;;;;;;;6157895;23;20029;-83
2021/06/27 09:20:53;;;;;;;9.45;8.32;;;;;;;;;;6158197;23;20173;-82
2021/06/27 09:23:40;;;;;;;11.70;7.80;;;;;;;;;;6159632;23;20029;-82
2021/06/27 09:26:09;;;;;;;15.75;5.93;;;;;;;;;;6157835;23;20025;-84
2021/06/27 09:28:44;;;;;;;8.60;7.30;;;;;;;;;;6157335;23;20089;-83
2021/06/27 09:31:10;;;;;;;7.77;6.73;;;;;;;;;;6159296;23;20025;-82
2021/06/27 09:33:37;;;;;;;10.27;7.35;;;;;;;;;;6168798;23;20021;-82
2021/06/27 09:36:09;;;;;;;8.75;6.18;;;;;;;;;;6173691;23;20354;-83
2021/06/27 09:38:41;;;;;;;7.03;6.32;;;;;;;;;;6187974;23;20052;-82
2021/06/27 09:41:23;;;;;;;7.88;6.55;;;;;;;;;;6157239;23;20083;-82
2021/06/27 09:43:52;;;;;;;6.78;5.60;;;;;;;;;;6180396;23;20222;-82
2021/06/27 09:46:31;;;;;;;6.35;5.75;;;;;;;;;;6177179;23;20025;-82
2021/06/27 09:49:00;;;;;;;8.40;6.03;;;;;;;;;;6183941;23;20032;-82
2021/06/27 09:51:28;;;;;;;6.70;6.00;;;;;;;;;;6209595;23;20418;-84
2021/06/27 09:53:57;;;;;;;6.63;5.20;;;;;;;;;;6182752;23;20190;-83
2021/06/27 09:56:26;;;;;;;9.30;6.55;;;;;;;;;;6182227;23;20203;-82
2021/06/27 09:58:55;;;;;;;6.20;5.60;;;;;;;;;;6208483;23;20028;-83
2021/06/27 10:01:25;;;;;;;7.50;6.70;;;;;;;;;;6183879;23;20046;-83
2021/06/27 10:03:54;;;;;;;8.57;5.55;;;;;;;;;;6184262;23;20032;-83
2021/06/27 10:06:31;;;;;;;9.30;5.78;;;;;;;;;;6182907;23;20025;-83
2021/06/27 10:09:12;;;;;;;11.32;6.55;;;;;;;;;;6184076;23;20205;-82
2021/06/27 10:12:00;;;;;;;7.55;6.18;;;;;;;;;;6209618;23;20024;-82
2021/06/27 10:14:31;;;;;;;9.73;5.50;;;;;;;;;;6209309;23;20036;-82
2021/06/27 10:17:16;;;;;;;7.78;4.70;;;;;;;;;;6182855;23;20295;-85
2021/06/27 10:19:44;;;;;;;8.00;6.75;;;;;;;;;;6210079;23;20044;-82
2021/06/27 10:22:26;;;;;;;6.65;5.38;;;;;;;;;;6212238;23;20024;-83
2021/06/27 10:24:58;;;;;;;7.20;5.93;;;;;;;;;;6211560;23;20257;-84
2021/06/27 10:27:27;;;;;;;7.90;4.85;;;;;;;;;;6210598;23;20172;-82
2021/06/27 10:29:54;;;;;;;7.45;5.10;;;;;;;;;;6184194;23;20284;-82
2021/06/27 10:32:21;;;;;;;6.65;5.20;;;;;;;;;;6209985;23;20319;-83
2021/06/27 10:34:48;;;;;;;7.72;5.80;;;;;;;;;;6212064;23;20024;-83
2021/06/27 10:37:19;;;;;;;5.65;4.57;;;;;;;;;;6182375;23;20080;-83
2021/06/27 10:39:59;;;;;;;6.18;5.45;;;;;;;;;;6213056;23;20046;-82
2021/06/27 10:42:45;;;;;;;9.25;6.13;;;;;;;;;;6183593;23;20134;-83
2021/06/27 10:45:18;;;;;;;5.82;4.32;;;;;;;;;;6212511;23;20021;-84
2021/06/27 10:47:46;;;;;;;6.65;5.47;;;;;;;;;;6211607;23;20043;-83
2021/06/27 10:50:16;;;;;;;9.73;6.72;;;;;;;;;;6212044;23;20144;-83
2021/06/27 10:52:55;;;;;;;9.27;6.38;;;;;;;;;;6208145;23;20032;-83
2021/06/27 10:55:28;;;;;;;10.32;5.28;;;;;;;;;;6211546;23;20035;-83
2021/06/27 10:57:58;;;;;;;6.05;5.03;;;;;;;;;;6207223;23;20343;-84
2021/06/27 11:00:48;;;;;;;7.20;5.25;;;;;;;;;;6184696;23;20207;-83
2021/06/27 11:03:27;;;;;;;8.23;5.50;;;;;;;;;;6210769;23;20333;-82
2021/06/27 11:05:58;;;;;;;6.80;5.60;;;;;;;;;;6183914;23;20048;-83
2021/06/27 11:09:05;;;;;;;7.15;4.95;;;;;;;;;;6182755;23;20096;-83
2021/06/27 11:11:50;;;;;;;9.10;4.18;;;;;;;;;;6182568;23;20557;-82
2021/06/27 11:14:23;;;;;;;6.55;5.85;;;;;;;;;;6208708;23;20177;-82
2021/06/27 11:17:00;;;;;;;10.43;6.32;;;;;;;;;;6209152;23;20288;-82
2021/06/27 11:19:31;;;;;;;6.10;5.07;;;;;;;;;;6181941;23;20035;-83
2021/06/27 11:22:17;;;;;;;5.90;4.82;;;;;;;;;;6208967;23;20039;-83
2021/06/27 11:24:43;;;;;;;;;;;;;;;;;;6184031;23;20373;-83
2021/06/27 11:27:32;;;;;;;6.55;5.25;;;;;;;;;;6208927;23;19915;-82
2021/06/27 11:30:17;;;;;;;5.72;4.85;;;;;;;;;;6182760;23;20067;-83
2021/06/27 11:32:43;;;;;;;6.55;5.25;;;;;;;;;;6182240;23;20401;-84
2021/06/27 11:35:11;;;;;;;6.70;4.93;;;;;;;;;;6211844;23;20067;-83
2021/06/27 11:37:40;;;;;;;6.78;4.28;;;;;;;;;;6205699;23;20024;-84
2021/06/27 11:40:07;;;;;;;5.72;4.60;;;;;;;;;;6181491;23;20108;-84
2021/06/27 11:42:33;;;;;;;6.20;4.53;;;;;;;;;;6205082;23;20028;-84
2021/06/27 11:47:37;;;;;;;5.75;4.10;;;;;;;;;;6205576;23;20033;-83
2021/06/27 11:50:23;;;;;;;7.70;4.45;;;;;;;;;;6181560;23;20424;-83
2021/06/27 11:52:52;;;;;;;4.80;4.30;;;;;;;;;;6209116;23;20120;-83
2021/06/27 11:55:26;;;;;;;5.18;4.68;;;;;;;;;;6180236;23;20079;-83
2021/06/27 11:57:52;;;;;;;4.78;4.30;;;;;;;;;;6204513;23;20245;-83
2021/06/27 12:00:20;;;;;;;7.03;4.75;;;;;;;;;;6204766;23;20033;-83
2021/06/27 12:02:46;;;;;;;9.07;4.38;;;;;;;;;;6179391;23;20040;-83
2021/06/27 12:05:14;;;;;;;10.40;3.95;;;;;;;;;;6205619;23;20213;-83
2021/06/27 12:07:45;;;;;;;4.95;3.80;;;;;;;;;;6206946;23;20028;-84
2021/06/27 12:10:18;;;;;;;5.32;4.15;;;;;;;;;;6209246;23;20467;-84
2021/06/27 12:12:52;;;;;;;8.32;5.35;;;;;;;;;;6180669;23;20271;-83
2021/06/27 12:15:18;;;;;;;7.57;4.55;;;;;;;;;;6206757;23;20024;-84
2021/06/27 12:17:45;;;;;;;4.30;3.70;;;;;;;;;;6206578;23;20243;-83
2021/06/27 12:20:12;;;;;;;4.55;4.15;;;;;;;;;;6179442;23;20052;-83
2021/06/27 12:22:48;;;;;;;5.82;5.22;;;;;;;;;;6206277;23;20034;-83
2021/06/27 12:25:15;;;;;;;4.85;4.32;;;;;;;;;;6202380;23;20025;-83
2021/06/27 12:27:48;;;;;;;5.40;3.85;;;;;;;;;;6206439;23;20036;-83
2021/06/27 12:30:16;;;;;;;4.30;3.88;;;;;;;;;;6204672;23;20407;-84
2021/06/27 12:33:01;;;;;;;5.97;3.75;;;;;;;;;;6177176;23;20190;-84
2021/06/27 12:35:31;;;;;;;4.90;4.43;;;;;;;;;;6176913;23;20025;-83
2021/06/27 12:38:02;;;;;;;5.00;3.90;;;;;;;;;;6202558;23;20637;-83
2021/06/27 12:40:29;;;;;;;6.75;4.15;;;;;;;;;;6178452;23;20506;-83
2021/06/27 12:42:56;;;;;;;6.15;4.28;;;;;;;;;;6180758;23;20083;-83
2021/06/27 12:45:26;;;;;;;4.80;4.30;;;;;;;;;;6204006;23;20035;-83
2021/06/27 12:47:53;;;;;;;5.65;4.88;;;;;;;;;;6205036;23;20024;-83
2021/06/27 12:50:40;;;;;;;7.47;4.47;;;;;;;;;;6203574;23;20127;-84
2021/06/27 12:53:07;;;;;;;4.20;3.80;;;;;;;;;;6205541;23;20033;-84
2021/06/27 12:55:34;;;;;;;4.32;3.83;;;;;;;;;;6205785;23;20043;-84
2021/06/27 12:58:01;;;;;;;4.95;4.28;;;;;;;;;;6218936;23;20089;-83
2021/06/27 13:00:34;;;;;;;4.78;3.85;;;;;;;;;;6227278;23;20050;-83
2021/06/27 13:03:17;;;;;;;6.05;4.40;;;;;;;;;;6212917;23;20214;-84
2021/06/27 13:05:59;;;;;;;4.93;4.40;;;;;;;;;;6203550;23;20036;-84
2021/06/27 13:08:29;;;;;;;8.80;3.90;;;;;;;;;;6206297;23;20130;-84
2021/06/27 13:11:07;;;;;;;6.53;3.50;;;;;;;;;;6206153;23;20037;-84
2021/06/27 13:13:33;;;;;;;3.70;3.40;;;;;;;;;;6211877;23;20024;-82
2021/06/27 13:16:11;;;;;;;4.50;3.83;;;;;;;;;;6214068;23;20024;-84
2021/06/27 13:18:38;;;;;;;4.75;3.88;;;;;;;;;;6205336;23;20139;-84
2021/06/27 13:21:16;;;;;;;5.07;3.88;;;;;;;;;;6209901;23;20024;-85
2021/06/27 13:23:45;;;;;;;6.43;3.80;;;;;;;;;;6210344;23;20086;-85
2021/06/27 13:26:17;;;;;;;4.90;4.32;;;;;;;;;;6207296;23;20081;-84
2021/06/27 13:28:50;;;;;;;7.53;3.95;;;;;;;;;;6179658;23;20047;-83
2021/06/27 13:31:29;;;;;;;8.02;4.68;;;;;;;;;;6207180;23;20056;-84
2021/06/27 13:33:59;;;;;;;4.57;4.18;;;;;;;;;;6208063;23;20229;-84
2021/06/27 13:36:26;;;;;;;5.32;4.55;;;;;;;;;;6206914;23;20553;-84
2021/06/27 13:38:57;;;;;;;6.05;4.43;;;;;;;;;;6178649;23;20017;-84
2021/06/27 13:41:27;;;;;;;7.30;3.83;;;;;;;;;;6208430;23;20111;-84
2021/06/27 13:43:55;;;;;;;7.47;4.38;;;;;;;;;;6210421;23;20024;-85
2021/06/27 13:46:24;;;;;;;6.20;4.15;;;;;;;;;;6210863;23;20032;-83
2021/06/27 13:48:51;;;;;;;5.10;4.47;;;;;;;;;;6207934;23;20028;-83
2021/06/27 13:51:21;;;;;;;6.97;4.10;;;;;;;;;;6208197;23;20024;-84
2021/06/27 13:53:52;;;;;;;9.15;4.43;;;;;;;;;;6208997;23;20025;-84
2021/06/27 13:56:19;;;;;;;6.35;4.28;;;;;;;;;;6209704;23;20457;-85
2021/06/27 13:58:49;;;;;;;5.10;3.88;;;;;;;;;;6211348;23;20589;-84
2021/06/27 14:01:19;;;;;;;4.63;3.92;;;;;;;;;;6209199;23;20024;-85
2021/06/27 14:03:46;;;;;;;4.00;3.60;;;;;;;;;;6210024;23;20084;-84
2021/06/27 14:06:16;;;;;;;5.25;3.58;;;;;;;;;;6207748;23;20032;-84
2021/06/27 14:08:45;;;;;;;4.95;4.30;;;;;;;;;;6208938;23;20051;-84
2021/06/27 14:11:12;;;;;;;4.32;3.92;;;;;;;;;;6208780;23;20055;-84
2021/06/27 14:13:39;;;;;;;5.50;4.88;;;;;;;;;;6205315;23;20339;-83
2021/06/27 14:16:06;;;;;;;5.85;5.10;;;;;;;;;;6208571;23;20035;-84
2021/06/27 14:18:43;;;;;;;4.00;3.55;;;;;;;;;;6211453;23;20020;-85
2021/06/27 14:21:12;;;;;;;6.20;4.78;;;;;;;;;;6207998;23;20080;-85
2021/06/27 14:23:39;;;;;;;3.92;3.50;;;;;;;;;;6209031;23;20020;-84
2021/06/27 14:26:06;;;;;;;4.60;4.00;;;;;;;;;;6208257;23;20049;-84
2021/06/27 14:28:33;;;;;;;6.25;3.28;;;;;;;;;;6207668;23;20044;-84
2021/06/27 14:31:01;;;;;;;4.63;3.47;;;;;;;;;;6208713;23;20239;-84
2021/06/27 14:33:28;;;;;;;4.10;3.30;;;;;;;;;;6210630;23;20080;-85
2021/06/27 14:36:02;;;;;;;5.57;3.47;;;;;;;;;;6208885;23;20189;-85
2021/06/27 14:38:31;;;;;;;5.40;4.05;;;;;;;;;;6208964;23;20425;-86
2021/06/27 14:41:03;;;;;;;3.72;3.42;;;;;;;;;;6210181;23;20087;-83
2021/06/27 14:43:30;;;;;;;5.00;3.65;;;;;;;;;;6214554;23;20099;-84
2021/06/27 14:45:57;;;;;;;4.40;3.80;;;;;;;;;;6212277;23;20032;-83